sensor_id;sensor_type;location;lat;lon;timestamp;pressure;altitude;pressure_sealevel;temperature;humidity
7170;BME280;3626;42.656;23.312;2023-06-14T00:00:06;94323.91;;;16.06;100.00
7170;BME280;3626;42.656;23.312;2023-06-14T00:00:13;94328.09;;;16.07;100.00
7170;BME280;3626;42.656;23.312;2023-06-14T00:00:20;94328.09;;;16.07;100.00
7170;BME280;3626;42.656;23.312;2023-06-14T00:00:26;94315.09;;;16.07;100.00
7170;BME280;3626;42.656;23.312;2023-06-14T00:00:32;94322.91;;;16.07;100.00
7170;BME280;3626;42.656;23.312;2023-06-14T00:00:39;94324.47;;;16.08;100.00
7170;BME280;3626;42.656;23.312;2023-06-14T00:00:47;94319.28;;;16.08;100.00
7170;BME280;3626;42.656;23.312;2023-06-14T00:00:54;94321.88;;;16.08;100.00
7170;BME280;3626;42.656;23.312;2023-06-14T00:01:02;94323.47;;;16.09;100.00
7170;BME280;3626;42.656;23.312;2023-06-14T00:01:08;94322.69;;;16.08;100.00
7170;BME280;3626;42.656;23.312;2023-06-14T00:01:15;94324.28;;;16.09;100.00
7170;BME280;3626;42.656;23.312;2023-06-14T00:01:20;94323.28;;;16.10;100.00
7170;BME280;3626;42.656;23.312;2023-06-14T00:01:29;94327.66;;;16.10;100.00
7170;BME280;3626;42.656;23.312;2023-06-14T00:01:35;94318.25;;;16.09;100.00
7170;BME280;3626;42.656;23.312;2023-06-14T00:01:41;94327.66;;;16.10;100.00
7170;BME280;3626;42.656;23.312;2023-06-14T00:01:50;94317.25;;;16.10;100.00
7170;BME280;3626;42.656;23.312;2023-06-14T00:01:56;94325.06;;;16.10;100.00
7170;BME280;3626;42.656;23.312;2023-06-14T00:02:02;94323.28;;;16.10;100.00
7170;BME280;3626;42.656;23.312;2023-06-14T00:02:08;94323.28;;;16.10;100.00
7170;BME280;3626;42.656;23.312;2023-06-14T00:02:14;94322.47;;;16.10;100.00
7170;BME280;3626;42.656;23.312;2023-06-14T00:02:21;94323.28;;;16.10;100.00
7170;BME280;3626;42.656;23.312;2023-06-14T00:02:27;94317.25;;;16.10;100.00
7170;BME280;3626;42.656;23.312;2023-06-14T00:02:32;94321.47;;;16.11;100.00
7170;BME280;3626;42.656;23.312;2023-06-14T00:02:38;94315.25;;;16.12;100.00
7170;BME280;3626;42.656;23.312;2023-06-14T00:02:44;94321.47;;;16.11;100.00
7170;BME280;3626;42.656;23.312;2023-06-14T00:02:50;94322.28;;;16.11;100.00
7170;BME280;3626;42.656;23.312;2023-06-14T00:03:01;94327.25;;;16.13;100.00
7170;BME280;3626;42.656;23.312;2023-06-14T00:03:09;94324.66;;;16.13;100.00
7170;BME280;3626;42.656;23.312;2023-06-14T00:03:15;94320.47;;;16.12;100.00
7170;BME280;3626;42.656;23.312;2023-06-14T00:03:22;94322.06;;;16.13;100.00
7170;BME280;3626;42.656;23.312;2023-06-14T00:03:30;94321.25;;;16.12;100.00
7170;BME280;3626;42.656;23.312;2023-06-14T00:03:37;94322.84;;;16.13;100.00
7170;BME280;3626;42.656;23.312;2023-06-14T00:03:44;94322.84;;;16.13;100.00
7170;BME280;3626;42.656;23.312;2023-06-14T00:03:50;94319.44;;;16.13;100.00
7170;BME280;3626;42.656;23.312;2023-06-14T00:03:56;94322.84;;;16.13;100.00
7170;BME280;3626;42.656;23.312;2023-06-14T00:04:02;94318.44;;;16.14;100.00
7170;BME280;3626;42.656;23.312;2023-06-14T00:04:07;94320.25;;;16.13;100.00
7170;BME280;3626;42.656;23.312;2023-06-14T00:04:14;94325.25;;;16.15;100.00
7170;BME280;3626;42.656;23.312;2023-06-14T00:04:22;94318.44;;;16.14;100.00
7170;BME280;3626;42.656;23.312;2023-06-14T00:04:30;94322.66;;;16.15;100.00
7170;BME280;3626;42.656;23.312;2023-06-14T00:04:36;94324.47;;;16.14;100.00
7170;BME280;3626;42.656;23.312;2023-06-14T00:04:44;94320.06;;;16.15;100.00
7170;BME280;3626;42.656;23.312;2023-06-14T00:04:53;94320.06;;;16.15;100.00
7170;BME280;3626;42.656;23.312;2023-06-14T00:04:59;94318.25;;;16.15;100.00
7170;BME280;3626;42.656;23.312;2023-06-14T00:05:06;94325.25;;;16.15;100.00
7170;BME280;3626;42.656;23.312;2023-06-14T00:05:12;94326.06;;;16.15;100.00
7170;BME280;3626;42.656;23.312;2023-06-14T00:05:18;94322.66;;;16.15;100.00
7170;BME280;3626;42.656;23.312;2023-06-14T00:05:24;94321.88;;;16.14;100.00
7170;BME280;3626;42.656;23.312;2023-06-14T00:05:30;94320.06;;;16.15;100.00
7170;BME280;3626;42.656;23.312;2023-06-14T00:05:39;94322.66;;;16.15;100.00
7170;BME280;3626;42.656;23.312;2023-06-14T00:05:48;94323.44;;;16.15;100.00
7170;BME280;3626;42.656;23.312;2023-06-14T00:05:54;94324.47;;;16.14;100.00
7170;BME280;3626;42.656;23.312;2023-06-14T00:06:00;94324.47;;;16.14;100.00
7170;BME280;3626;42.656;23.312;2023-06-14T00:06:06;94325.25;;;16.15;100.00
7170;BME280;3626;42.656;23.312;2023-06-14T00:06:12;94322.66;;;16.15;100.00
7170;BME280;3626;42.656;23.312;2023-06-14T00:06:18;94326.84;;;16.16;100.00
7170;BME280;3626;42.656;23.312;2023-06-14T00:06:24;94323.44;;;16.15;100.00
7170;BME280;3626;42.656;23.312;2023-06-14T00:06:30;94319.25;;;16.14;100.00
7170;BME280;3626;42.656;23.312;2023-06-14T00:06:36;94327.88;;;16.15;100.00
7170;BME280;3626;42.656;23.312;2023-06-14T00:06:43;94325.25;;;16.15;100.00
7170;BME280;3626;42.656;23.312;2023-06-14T00:06:50;94320.84;;;16.15;100.00
7170;BME280;3626;42.656;23.312;2023-06-14T00:06:56;94322.44;;;16.16;100.00
7170;BME280;3626;42.656;23.312;2023-06-14T00:07:02;94321.66;;;16.16;100.00
7170;BME280;3626;42.656;23.312;2023-06-14T00:07:08;94322.44;;;16.16;100.00
7170;BME280;3626;42.656;23.312;2023-06-14T00:07:14;94319.03;;;16.16;100.00
7170;BME280;3626;42.656;23.312;2023-06-14T00:07:33;94321.44;;;16.17;100.00
7170;BME280;3626;42.656;23.312;2023-06-14T00:07:41;94329.25;;;16.17;100.00
7170;BME280;3626;42.656;23.312;2023-06-14T00:07:48;94320.63;;;16.17;100.00
7170;BME280;3626;42.656;23.312;2023-06-14T00:07:54;94321.44;;;16.17;100.00
7170;BME280;3626;42.656;23.312;2023-06-14T00:08:00;94320.63;;;16.17;100.00
7170;BME280;3626;42.656;23.312;2023-06-14T00:08:06;94316.22;;;16.17;100.00
7170;BME280;3626;42.656;23.312;2023-06-14T00:08:14;94317.22;;;16.16;100.00
7170;BME280;3626;42.656;23.312;2023-06-14T00:08:20;94316.66;;;16.14;100.00
7170;BME280;3626;42.656;23.312;2023-06-14T00:08:28;94322.84;;;16.13;100.00
7170;BME280;3626;42.656;23.312;2023-06-14T00:08:34;94322.84;;;16.13;100.00
7170;BME280;3626;42.656;23.312;2023-06-14T00:08:40;94322.84;;;16.13;100.00
7170;BME280;3626;42.656;23.312;2023-06-14T00:08:46;94317.84;;;16.12;100.00
7170;BME280;3626;42.656;23.312;2023-06-14T00:08:51;94315.25;;;16.12;100.00
7170;BME280;3626;42.656;23.312;2023-06-14T00:08:57;94319.44;;;16.13;100.00
7170;BME280;3626;42.656;23.312;2023-06-14T00:09:03;94319.66;;;16.11;100.00
7170;BME280;3626;42.656;23.312;2023-06-14T00:09:10;94317.84;;;16.12;100.00
7170;BME280;3626;42.656;23.312;2023-06-14T00:09:16;94318.06;;;16.10;100.00
7170;BME280;3626;42.656;23.312;2023-06-14T00:09:23;94318.88;;;16.11;100.00
7170;BME280;3626;42.656;23.312;2023-06-14T00:09:31;94317.25;;;16.10;100.00
7170;BME280;3626;42.656;23.312;2023-06-14T00:09:37;94316.47;;;16.09;100.00
7170;BME280;3626;42.656;23.312;2023-06-14T00:09:43;94313.84;;;16.09;100.00
7170;BME280;3626;42.656;23.312;2023-06-14T00:09:49;94308.66;;;16.09;100.00
7170;BME280;3626;42.656;23.312;2023-06-14T00:09:55;94320.88;;;16.09;100.00
7170;BME280;3626;42.656;23.312;2023-06-14T00:10:01;94314.06;;;16.08;100.00
7170;BME280;3626;42.656;23.312;2023-06-14T00:10:07;94319.28;;;16.08;100.00
7170;BME280;3626;42.656;23.312;2023-06-14T00:10:14;94316.09;;;16.06;100.00
7170;BME280;3626;42.656;23.312;2023-06-14T00:10:20;94318.09;;;16.04;100.00
7170;BME280;3626;42.656;23.312;2023-06-14T00:10:26;94310.50;;;16.02;100.00
7170;BME280;3626;42.656;23.312;2023-06-14T00:10:36;94315.72;;;16.02;100.00
7170;BME280;3626;42.656;23.312;2023-06-14T00:10:46;94312.50;;;16.00;100.00
7170;BME280;3626;42.656;23.312;2023-06-14T00:10:52;94314.31;;;15.99;100.00
7170;BME280;3626;42.656;23.312;2023-06-14T00:10:59;94315.31;;;15.98;100.00
7170;BME280;3626;42.656;23.312;2023-06-14T00:11:05;94312.72;;;15.98;100.00
7170;BME280;3626;42.656;23.312;2023-06-14T00:11:11;94319.72;;;15.98;100.00
7170;BME280;3626;42.656;23.312;2023-06-14T00:11:17;94314.53;;;15.98;100.00
7170;BME280;3626;42.656;23.312;2023-06-14T00:11:23;94314.72;;;15.96;100.00
7170;BME280;3626;42.656;23.312;2023-06-14T00:11:29;94316.53;;;15.96;100.00
7170;BME280;3626;42.656;23.312;2023-06-14T00:11:36;94314.13;;;15.94;100.00
7170;BME280;3626;42.656;23.312;2023-06-14T00:11:42;94314.13;;;15.94;100.00
7170;BME280;3626;42.656;23.312;2023-06-14T00:11:48;94314.13;;;15.94;100.00
7170;BME280;3626;42.656;23.312;2023-06-14T00:11:54;94311.75;;;15.93;100.00
7170;BME280;3626;42.656;23.312;2023-06-14T00:12:00;94314.34;;;15.93;100.00
7170;BME280;3626;42.656;23.312;2023-06-14T00:12:06;94314.53;;;15.91;100.00
7170;BME280;3626;42.656;23.312;2023-06-14T00:12:14;94315.34;;;15.92;100.00
7170;BME280;3626;42.656;23.312;2023-06-14T00:12:20;94314.53;;;15.91;100.00
7170;BME280;3626;42.656;23.312;2023-06-14T00:12:25;94312.72;;;15.92;100.00
7170;BME280;3626;42.656;23.312;2023-06-14T00:12:31;94311.94;;;15.91;100.00
7170;BME280;3626;42.656;23.312;2023-06-14T00:12:38;94310.13;;;15.92;100.00
7170;BME280;3626;42.656;23.312;2023-06-14T00:12:44;94311.94;;;15.91;100.00
7170;BME280;3626;42.656;23.312;2023-06-14T00:12:50;94313.53;;;15.92;100.00
7170;BME280;3626;42.656;23.312;2023-06-14T00:12:56;94314.53;;;15.91;100.00
7170;BME280;3626;42.656;23.312;2023-06-14T00:13:02;94309.34;;;15.91;100.00
7170;BME280;3626;42.656;23.312;2023-06-14T00:13:08;94310.13;;;15.92;100.00
7170;BME280;3626;42.656;23.312;2023-06-14T00:13:14;94314.53;;;15.91;100.00
7170;BME280;3626;42.656;23.312;2023-06-14T00:13:20;94314.53;;;15.91;100.00
7170;BME280;3626;42.656;23.312;2023-06-14T00:13:26;94313.53;;;15.92;100.00
7170;BME280;3626;42.656;23.312;2023-06-14T00:13:32;94307.34;;;15.93;100.00
7170;BME280;3626;42.656;23.312;2023-06-14T00:13:41;94318.53;;;15.94;100.00
7170;BME280;3626;42.656;23.312;2023-06-14T00:13:48;94314.13;;;15.94;100.00
7170;BME280;3626;42.656;23.312;2023-06-14T00:13:54;94313.34;;;15.94;100.00
7170;BME280;3626;42.656;23.312;2023-06-14T00:14:00;94311.53;;;15.94;100.00
7170;BME280;3626;42.656;23.312;2023-06-14T00:14:06;94310.50;;;15.95;100.00
7170;BME280;3626;42.656;23.312;2023-06-14T00:14:12;94307.91;;;15.95;100.00
7170;BME280;3626;42.656;23.312;2023-06-14T00:14:18;94310.28;;;15.97;100.00
7170;BME280;3626;42.656;23.312;2023-06-14T00:14:24;94313.72;;;15.97;100.00
7170;BME280;3626;42.656;23.312;2023-06-14T00:14:30;94314.53;;;15.98;100.00
7170;BME280;3626;42.656;23.312;2023-06-14T00:14:35;94309.31;;;15.98;100.00
7170;BME280;3626;42.656;23.312;2023-06-14T00:14:41;94310.91;;;15.99;100.00
7170;BME280;3626;42.656;23.312;2023-06-14T00:14:47;94310.13;;;15.98;100.00
7170;BME280;3626;42.656;23.312;2023-06-14T00:14:53;94316.91;;;15.99;100.00
7170;BME280;3626;42.656;23.312;2023-06-14T00:14:59;94308.88;;;16.01;100.00
7170;BME280;3626;42.656;23.312;2023-06-14T00:15:07;94308.88;;;16.01;100.00
7170;BME280;3626;42.656;23.312;2023-06-14T00:15:15;94314.09;;;16.01;100.00
7170;BME280;3626;42.656;23.312;2023-06-14T00:15:23;94317.50;;;16.02;100.00
7170;BME280;3626;42.656;23.312;2023-06-14T00:15:30;94315.72;;;16.02;100.00
7170;BME280;3626;42.656;23.312;2023-06-14T00:15:36;94306.09;;;16.03;100.00
7170;BME280;3626;42.656;23.312;2023-06-14T00:15:42;94313.91;;;16.03;100.00
7170;BME280;3626;42.656;23.312;2023-06-14T00:15:49;94310.28;;;16.04;100.00
7170;BME280;3626;42.656;23.312;2023-06-14T00:15:58;94309.50;;;16.03;100.00
7170;BME280;3626;42.656;23.312;2023-06-14T00:16:04;94307.69;;;16.04;100.00
7170;BME280;3626;42.656;23.312;2023-06-14T00:16:10;94309.50;;;16.03;100.00
7170;BME280;3626;42.656;23.312;2023-06-14T00:16:16;94307.69;;;16.04;100.00
7170;BME280;3626;42.656;23.312;2023-06-14T00:16:23;94312.88;;;16.04;100.00
7170;BME280;3626;42.656;23.312;2023-06-14T00:16:29;94310.28;;;16.04;100.00
7170;BME280;3626;42.656;23.312;2023-06-14T00:16:35;94315.50;;;16.04;100.00
7170;BME280;3626;42.656;23.312;2023-06-14T00:16:42;94310.28;;;16.04;100.00
7170;BME280;3626;42.656;23.312;2023-06-14T00:16:51;94311.88;;;16.05;100.00
7170;BME280;3626;42.656;23.312;2023-06-14T00:16:58;94311.06;;;16.04;100.00
7170;BME280;3626;42.656;23.312;2023-06-14T00:17:04;94307.69;;;16.04;100.00
7170;BME280;3626;42.656;23.312;2023-06-14T00:17:10;94305.06;;;16.04;100.00
7170;BME280;3626;42.656;23.312;2023-06-14T00:17:16;94307.69;;;16.04;100.00
7170;BME280;3626;42.656;23.312;2023-06-14T00:17:22;94306.09;;;16.03;100.00
7170;BME280;3626;42.656;23.312;2023-06-14T00:17:28;94306.88;;;16.03;100.00
7170;BME280;3626;42.656;23.312;2023-06-14T00:17:35;94312.88;;;16.04;100.00
7170;BME280;3626;42.656;23.312;2023-06-14T00:17:41;94308.69;;;16.03;100.00
7170;BME280;3626;42.656;23.312;2023-06-14T00:17:47;94310.28;;;16.04;100.00
7170;BME280;3626;42.656;23.312;2023-06-14T00:17:53;94311.06;;;16.04;100.00
7170;BME280;3626;42.656;23.312;2023-06-14T00:18:00;94312.88;;;16.04;100.00
7170;BME280;3626;42.656;23.312;2023-06-14T00:18:06;94313.69;;;16.04;100.00
7170;BME280;3626;42.656;23.312;2023-06-14T00:18:13;94309.28;;;16.05;100.00
7170;BME280;3626;42.656;23.312;2023-06-14T00:18:18;94305.06;;;16.04;100.00
7170;BME280;3626;42.656;23.312;2023-06-14T00:18:24;94310.06;;;16.05;100.00
7170;BME280;3626;42.656;23.312;2023-06-14T00:18:34;94318.69;;;16.06;100.00
7170;BME280;3626;42.656;23.312;2023-06-14T00:18:40;94310.88;;;16.06;100.00
7170;BME280;3626;42.656;23.312;2023-06-14T00:18:47;94315.28;;;16.05;100.00
7170;BME280;3626;42.656;23.312;2023-06-14T00:18:53;94302.25;;;16.05;100.00
7170;BME280;3626;42.656;23.312;2023-06-14T00:18:59;94306.66;;;16.05;100.00
7170;BME280;3626;42.656;23.312;2023-06-14T00:19:07;94305.88;;;16.04;100.00
7170;BME280;3626;42.656;23.312;2023-06-14T00:19:14;94312.66;;;16.05;100.00
7170;BME280;3626;42.656;23.312;2023-06-14T00:19:19;94304.06;;;16.05;100.00
7170;BME280;3626;42.656;23.312;2023-06-14T00:19:26;94310.06;;;16.05;100.00
7170;BME280;3626;42.656;23.312;2023-06-14T00:19:32;94310.06;;;16.05;100.00
7170;BME280;3626;42.656;23.312;2023-06-14T00:19:39;94310.06;;;16.05;100.00
7170;BME280;3626;42.656;23.312;2023-06-14T00:19:46;94310.06;;;16.05;100.00
7170;BME280;3626;42.656;23.312;2023-06-14T00:19:52;94306.66;;;16.05;100.00
7170;BME280;3626;42.656;23.312;2023-06-14T00:20:00;94305.88;;;16.04;100.00
7170;BME280;3626;42.656;23.312;2023-06-14T00:20:06;94310.88;;;16.06;100.00
7170;BME280;3626;42.656;23.312;2023-06-14T00:20:13;94307.47;;;16.05;100.00
7170;BME280;3626;42.656;23.312;2023-06-14T00:20:19;94309.09;;;16.06;100.00
7170;BME280;3626;42.656;23.312;2023-06-14T00:20:25;94304.06;;;16.05;100.00
7170;BME280;3626;42.656;23.312;2023-06-14T00:20:33;94310.88;;;16.06;100.00
7170;BME280;3626;42.656;23.312;2023-06-14T00:20:39;94310.06;;;16.05;100.00
7170;BME280;3626;42.656;23.312;2023-06-14T00:20:45;94308.28;;;16.06;100.00
7170;BME280;3626;42.656;23.312;2023-06-14T00:20:52;94306.47;;;16.06;100.00
7170;BME280;3626;42.656;23.312;2023-06-14T00:20:57;94305.69;;;16.06;100.00
7170;BME280;3626;42.656;23.312;2023-06-14T00:21:03;94302.06;;;16.07;100.00
7170;BME280;3626;42.656;23.312;2023-06-14T00:21:09;94308.28;;;16.06;100.00
7170;BME280;3626;42.656;23.312;2023-06-14T00:21:15;94301.28;;;16.06;100.00
7170;BME280;3626;42.656;23.312;2023-06-14T00:21:21;94306.47;;;16.06;100.00
7170;BME280;3626;42.656;23.312;2023-06-14T00:21:27;94305.69;;;16.06;100.00
7170;BME280;3626;42.656;23.312;2023-06-14T00:21:35;94305.69;;;16.06;100.00
7170;BME280;3626;42.656;23.312;2023-06-14T00:21:42;94306.47;;;16.06;100.00
7170;BME280;3626;42.656;23.312;2023-06-14T00:21:48;94310.88;;;16.06;100.00
7170;BME280;3626;42.656;23.312;2023-06-14T00:21:54;94306.47;;;16.06;100.00
7170;BME280;3626;42.656;23.312;2023-06-14T00:22:00;94309.09;;;16.06;100.00
7170;BME280;3626;42.656;23.312;2023-06-14T00:22:07;94301.28;;;16.06;100.00
7170;BME280;3626;42.656;23.312;2023-06-14T00:22:13;94305.69;;;16.06;100.00
7170;BME280;3626;42.656;23.312;2023-06-14T00:22:19;94309.09;;;16.06;100.00
7170;BME280;3626;42.656;23.312;2023-06-14T00:22:25;94298.66;;;16.06;100.00
7170;BME280;3626;42.656;23.312;2023-06-14T00:22:34;94299.47;;;16.07;100.00
7170;BME280;3626;42.656;23.312;2023-06-14T00:22:42;94308.06;;;16.07;100.00
7170;BME280;3626;42.656;23.312;2023-06-14T00:22:47;94308.28;;;16.06;100.00
7170;BME280;3626;42.656;23.312;2023-06-14T00:22:53;94303.09;;;16.06;100.00
7170;BME280;3626;42.656;23.312;2023-06-14T00:23:00;94303.09;;;16.06;100.00
7170;BME280;3626;42.656;23.312;2023-06-14T00:23:06;94303.09;;;16.06;100.00
7170;BME280;3626;42.656;23.312;2023-06-14T00:23:12;94304.84;;;16.05;100.00
7170;BME280;3626;42.656;23.312;2023-06-14T00:23:18;94306.66;;;16.05;100.00
7170;BME280;3626;42.656;23.312;2023-06-14T00:23:25;94297.06;;;16.05;100.00
7170;BME280;3626;42.656;23.312;2023-06-14T00:23:31;94303.09;;;16.06;100.00
7170;BME280;3626;42.656;23.312;2023-06-14T00:23:37;94296.25;;;16.05;100.00
7170;BME280;3626;42.656;23.312;2023-06-14T00:23:43;94297.88;;;16.06;100.00
7170;BME280;3626;42.656;23.312;2023-06-14T00:23:49;94304.84;;;16.05;100.00
7170;BME280;3626;42.656;23.312;2023-06-14T00:23:55;94296.25;;;16.05;100.00
7170;BME280;3626;42.656;23.312;2023-06-14T00:24:01;94304.84;;;16.05;100.00
7170;BME280;3626;42.656;23.312;2023-06-14T00:24:08;94297.06;;;16.05;100.00
7170;BME280;3626;42.656;23.312;2023-06-14T00:24:14;94300.47;;;16.06;100.00
7170;BME280;3626;42.656;23.312;2023-06-14T00:24:20;94301.47;;;16.05;100.00
7170;BME280;3626;42.656;23.312;2023-06-14T00:24:25;94309.28;;;16.05;100.00
7170;BME280;3626;42.656;23.312;2023-06-14T00:24:31;94300.66;;;16.04;100.00
7170;BME280;3626;42.656;23.312;2023-06-14T00:24:37;94297.28;;;16.04;100.00
7170;BME280;3626;42.656;23.312;2023-06-14T00:24:43;94303.28;;;16.04;100.00
7170;BME280;3626;42.656;23.312;2023-06-14T00:24:49;94305.88;;;16.04;100.00
7170;BME280;3626;42.656;23.312;2023-06-14T00:24:55;94299.88;;;16.04;100.00
7170;BME280;3626;42.656;23.312;2023-06-14T00:25:02;94301.47;;;16.05;100.00
7170;BME280;3626;42.656;23.312;2023-06-14T00:25:08;94304.06;;;16.05;100.00
7170;BME280;3626;42.656;23.312;2023-06-14T00:25:14;94303.28;;;16.04;100.00
7170;BME280;3626;42.656;23.312;2023-06-14T00:25:20;94300.66;;;16.04;100.00
7170;BME280;3626;42.656;23.312;2023-06-14T00:25:26;94299.88;;;16.04;100.00
7170;BME280;3626;42.656;23.312;2023-06-14T00:25:32;94304.84;;;16.05;100.00
7170;BME280;3626;42.656;23.312;2023-06-14T00:25:38;94302.47;;;16.04;100.00
7170;BME280;3626;42.656;23.312;2023-06-14T00:25:44;94302.47;;;16.04;100.00
7170;BME280;3626;42.656;23.312;2023-06-14T00:25:50;94300.66;;;16.04;100.00
7170;BME280;3626;42.656;23.312;2023-06-14T00:25:56;94304.84;;;16.05;100.00
7170;BME280;3626;42.656;23.312;2023-06-14T00:26:02;94304.06;;;16.05;100.00
7170;BME280;3626;42.656;23.312;2023-06-14T00:26:08;94301.47;;;16.05;100.00
7170;BME280;3626;42.656;23.312;2023-06-14T00:26:14;94307.47;;;16.05;100.00
7170;BME280;3626;42.656;23.312;2023-06-14T00:26:21;94308.28;;;16.06;100.00
7170;BME280;3626;42.656;23.312;2023-06-14T00:26:27;94307.47;;;16.05;100.00
7170;BME280;3626;42.656;23.312;2023-06-14T00:26:33;94303.28;;;16.04;100.00
7170;BME280;3626;42.656;23.312;2023-06-14T00:26:42;94308.69;;;16.03;100.00
7170;BME280;3626;42.656;23.312;2023-06-14T00:26:48;94300.88;;;16.03;100.00
7170;BME280;3626;42.656;23.312;2023-06-14T00:26:54;94305.28;;;16.02;100.00
7170;BME280;3626;42.656;23.312;2023-06-14T00:27:00;94303.69;;;16.01;100.00
7170;BME280;3626;42.656;23.312;2023-06-14T00:27:06;94306.28;;;16.01;100.00
7170;BME280;3626;42.656;23.312;2023-06-14T00:27:12;94305.28;;;16.02;100.00
7170;BME280;3626;42.656;23.312;2023-06-14T00:27:18;94308.88;;;16.01;100.00
7170;BME280;3626;42.656;23.312;2023-06-14T00:27:24;94307.28;;;16.00;100.00
7170;BME280;3626;42.656;23.312;2023-06-14T00:27:30;94307.28;;;16.00;100.00
7170;BME280;3626;42.656;23.312;2023-06-14T00:27:36;94302.88;;;16.00;100.00
7170;BME280;3626;42.656;23.312;2023-06-14T00:27:42;94308.88;;;16.01;100.00
7170;BME280;3626;42.656;23.312;2023-06-14T00:27:48;94308.09;;;16.00;100.00
7170;BME280;3626;42.656;23.312;2023-06-14T00:27:54;94307.28;;;16.00;100.00
7170;BME280;3626;42.656;23.312;2023-06-14T00:28:01;94304.69;;;16.00;100.00
7170;BME280;3626;42.656;23.312;2023-06-14T00:28:06;94302.09;;;16.00;100.00
7170;BME280;3626;42.656;23.312;2023-06-14T00:28:13;94301.06;;;16.01;100.00
7170;BME280;3626;42.656;23.312;2023-06-14T00:28:19;94304.50;;;16.02;100.00
7170;BME280;3626;42.656;23.312;2023-06-14T00:28:26;94304.50;;;16.02;100.00
7170;BME280;3626;42.656;23.312;2023-06-14T00:28:31;94307.09;;;16.02;100.00
7170;BME280;3626;42.656;23.312;2023-06-14T00:28:37;94307.09;;;16.02;100.00
7170;BME280;3626;42.656;23.312;2023-06-14T00:28:43;94306.28;;;16.01;100.00
7170;BME280;3626;42.656;23.312;2023-06-14T00:28:49;94310.50;;;16.02;100.00
7170;BME280;3626;42.656;23.312;2023-06-14T00:28:55;94302.69;;;16.02;100.00
7170;BME280;3626;42.656;23.312;2023-06-14T00:29:02;94306.88;;;16.03;100.00
7170;BME280;3626;42.656;23.312;2023-06-14T00:29:08;94306.09;;;16.03;100.00
7170;BME280;3626;42.656;23.312;2023-06-14T00:29:13;94309.50;;;16.03;100.00
7170;BME280;3626;42.656;23.312;2023-06-14T00:29:19;94304.28;;;16.03;100.00
7170;BME280;3626;42.656;23.312;2023-06-14T00:29:25;94303.50;;;16.03;100.00
7170;BME280;3626;42.656;23.312;2023-06-14T00:29:31;94311.06;;;16.04;100.00
7170;BME280;3626;42.656;23.312;2023-06-14T00:29:37;94307.69;;;16.04;100.00
7170;BME280;3626;42.656;23.312;2023-06-14T00:29:43;94305.06;;;16.04;100.00
7170;BME280;3626;42.656;23.312;2023-06-14T00:29:49;94303.28;;;16.04;100.00
7170;BME280;3626;42.656;23.312;2023-06-14T00:29:57;94309.28;;;16.05;100.00
7170;BME280;3626;42.656;23.312;2023-06-14T00:30:04;94306.66;;;16.05;100.00
7170;BME280;3626;42.656;23.312;2023-06-14T00:30:11;94306.66;;;16.05;100.00
7170;BME280;3626;42.656;23.312;2023-06-14T00:30:17;94306.66;;;16.05;100.00
7170;BME280;3626;42.656;23.312;2023-06-14T00:30:23;94304.06;;;16.05;100.00
7170;BME280;3626;42.656;23.312;2023-06-14T00:30:29;94310.88;;;16.06;100.00
7170;BME280;3626;42.656;23.312;2023-06-14T00:30:36;94303.09;;;16.06;100.00
7170;BME280;3626;42.656;23.312;2023-06-14T00:30:41;94304.06;;;16.05;100.00
7170;BME280;3626;42.656;23.312;2023-06-14T00:30:51;94304.06;;;16.05;100.00
7170;BME280;3626;42.656;23.312;2023-06-14T00:30:57;94305.69;;;16.06;100.00
7170;BME280;3626;42.656;23.312;2023-06-14T00:31:02;94304.84;;;16.05;100.00
7170;BME280;3626;42.656;23.312;2023-06-14T00:31:09;94312.47;;;16.07;100.00
7170;BME280;3626;42.656;23.312;2023-06-14T00:31:15;94297.88;;;16.06;100.00
7170;BME280;3626;42.656;23.312;2023-06-14T00:31:21;94299.66;;;16.05;100.00
7170;BME280;3626;42.656;23.312;2023-06-14T00:31:27;94297.88;;;16.06;100.00
7170;BME280;3626;42.656;23.312;2023-06-14T00:31:33;94305.47;;;16.07;100.00
7170;BME280;3626;42.656;23.312;2023-06-14T00:31:39;94303.09;;;16.06;100.00
7170;BME280;3626;42.656;23.312;2023-06-14T00:31:45;94302.06;;;16.07;100.00
7170;BME280;3626;42.656;23.312;2023-06-14T00:31:50;94297.66;;;16.07;100.00
7170;BME280;3626;42.656;23.312;2023-06-14T00:31:56;94303.66;;;16.08;100.00
7170;BME280;3626;42.656;23.312;2023-06-14T00:32:03;94298.44;;;16.08;100.00
7170;BME280;3626;42.656;23.312;2023-06-14T00:32:09;94301.84;;;16.08;100.00
7170;BME280;3626;42.656;23.312;2023-06-14T00:32:15;94301.28;;;16.06;100.00
7170;BME280;3626;42.656;23.312;2023-06-14T00:32:21;94302.88;;;16.07;100.00
7170;BME280;3626;42.656;23.312;2023-06-14T00:32:31;94303.66;;;16.08;100.00
7170;BME280;3626;42.656;23.312;2023-06-14T00:32:36;94307.06;;;16.08;100.00
7170;BME280;3626;42.656;23.312;2023-06-14T00:32:46;94297.66;;;16.07;100.00
7170;BME280;3626;42.656;23.312;2023-06-14T00:32:52;94301.06;;;16.08;100.00
7170;BME280;3626;42.656;23.312;2023-06-14T00:32:58;94297.66;;;16.07;100.00
7170;BME280;3626;42.656;23.312;2023-06-14T00:33:04;94303.66;;;16.08;100.00
7170;BME280;3626;42.656;23.312;2023-06-14T00:33:09;94307.28;;;16.07;100.00
7170;BME280;3626;42.656;23.312;2023-06-14T00:33:15;94300.25;;;16.07;100.00
7170;BME280;3626;42.656;23.312;2023-06-14T00:33:21;94296.88;;;16.07;100.00
7170;BME280;3626;42.656;23.312;2023-06-14T00:33:27;94298.44;;;16.08;100.00
7170;BME280;3626;42.656;23.312;2023-06-14T00:33:33;94300.25;;;16.07;100.00
7170;BME280;3626;42.656;23.312;2023-06-14T00:33:39;94297.66;;;16.07;100.00
7170;BME280;3626;42.656;23.312;2023-06-14T00:33:45;94301.06;;;16.08;100.00
7170;BME280;3626;42.656;23.312;2023-06-14T00:33:50;94303.66;;;16.08;100.00
7170;BME280;3626;42.656;23.312;2023-06-14T00:33:56;94300.03;;;16.09;100.00
7170;BME280;3626;42.656;23.312;2023-06-14T00:34:02;94301.06;;;16.08;100.00
7170;BME280;3626;42.656;23.312;2023-06-14T00:34:08;94301.06;;;16.08;100.00
7170;BME280;3626;42.656;23.312;2023-06-14T00:34:15;94305.25;;;16.09;100.00